createdAt,value
2019-03-23T00:02:11.879Z,64.07
2019-03-23T00:04:42.412Z,63.96
2019-03-23T00:07:13.211Z,64.11
2019-03-23T00:09:44.708Z,64.47
2019-03-23T00:12:15.196Z,64.72
2019-03-23T00:14:46.001Z,65.14
2019-03-23T00:17:16.479Z,65.05
2019-03-23T00:19:46.990Z,65.19
2019-03-23T00:22:17.479Z,65.59
2019-03-23T00:24:48.158Z,65.92
2019-03-23T00:27:18.573Z,66.40
2019-03-23T00:29:50.489Z,66.85
2019-03-23T00:32:21.089Z,66.89
2019-03-23T00:34:51.748Z,67.03
2019-03-23T00:37:22.343Z,67.54
2019-03-23T00:39:53.223Z,67.84
2019-03-23T00:42:23.664Z,67.86
2019-03-23T00:44:54.166Z,67.90
2019-03-23T00:47:25.044Z,67.97
2019-03-23T00:49:55.581Z,68.20
2019-03-23T00:52:25.998Z,68.24
2019-03-23T00:54:57.641Z,68.20
2019-03-23T00:57:28.083Z,68.39
2019-03-23T00:59:58.669Z,68.58
2019-03-23T01:02:29.138Z,68.88
2019-03-23T01:05:00.831Z,69.20
2019-03-23T01:07:33.484Z,69.30
2019-03-23T01:10:04.292Z,69.51
2019-03-23T01:12:34.704Z,69.55
2019-03-23T01:15:06.405Z,69.67
2019-03-23T01:17:36.906Z,69.66
2019-03-23T01:20:08.634Z,69.85
2019-03-23T01:22:39.138Z,69.89
2019-03-23T01:25:09.887Z,69.98
2019-03-23T01:27:40.652Z,69.81
2019-03-23T01:30:11.862Z,69.92
2019-03-23T01:32:42.347Z,69.78
2019-03-23T01:35:13.057Z,69.93
2019-03-23T01:37:43.570Z,69.96
2019-03-23T01:40:15.715Z,70.05
2019-03-23T01:42:46.230Z,69.76
2019-03-23T01:45:16.862Z,69.71
2019-03-23T01:47:47.532Z,69.59
2019-03-23T01:50:18.029Z,69.67
2019-03-23T01:52:48.965Z,69.49
2019-03-23T01:55:20.958Z,69.41
2019-03-23T01:57:52.447Z,69.45
2019-03-23T02:00:22.845Z,69.19
2019-03-23T02:02:53.819Z,69.41
2019-03-23T02:05:24.359Z,69.38
2019-03-23T02:07:54.923Z,69.75
2019-03-23T02:10:25.438Z,69.98
2019-03-23T02:12:56.696Z,70.11
2019-03-23T02:15:27.471Z,70.49
2019-03-23T02:17:57.959Z,70.61
2019-03-23T02:20:28.522Z,70.88
2019-03-23T02:22:58.983Z,71.18
2019-03-23T02:25:29.526Z,71.59
2019-03-23T02:28:00.297Z,71.65
2019-03-23T02:30:30.776Z,72.17
2019-03-23T02:33:01.342Z,72.32
2019-03-23T02:35:31.842Z,72.85
2019-03-23T02:38:02.358Z,73.39
2019-03-23T02:40:32.847Z,73.82
2019-03-23T02:43:03.428Z,74.38
2019-03-23T02:45:34.663Z,75.15
2019-03-23T02:48:05.149Z,76.03
2019-03-23T02:50:35.687Z,76.96
2019-03-23T02:53:06.199Z,77.78
2019-03-23T02:55:36.609Z,78.64
2019-03-23T02:58:07.096Z,79.39
2019-03-23T03:00:39.087Z,79.96
2019-03-23T03:03:09.694Z,80.83
2019-03-23T03:05:41.237Z,81.26
2019-03-23T03:08:11.730Z,81.77
2019-03-23T03:10:43.004Z,82.41
2019-03-23T03:13:13.530Z,83.30
2019-03-23T03:15:44.072Z,83.82
2019-03-23T03:18:14.555Z,84.37
2019-03-23T03:20:45.139Z,84.67
2019-03-23T03:23:15.862Z,84.74
2019-03-23T03:25:46.899Z,84.99
2019-03-23T03:28:17.325Z,84.38
2019-03-23T03:30:49.048Z,84.10
2019-03-23T03:33:20.490Z,84.20
2019-03-23T03:35:51.247Z,83.81
2019-03-23T03:38:21.764Z,83.62
2019-03-23T03:40:52.718Z,83.08
2019-03-23T03:43:24.081Z,82.57
2019-03-23T03:45:54.504Z,82.44
2019-03-23T03:48:25.006Z,82.68
2019-03-23T03:50:55.546Z,83.05
2019-03-23T03:53:25.879Z,83.65
2019-03-23T03:55:56.389Z,84.57
2019-03-23T03:58:26.893Z,84.86
2019-03-23T04:00:57.505Z,85.05
2019-03-23T04:03:27.954Z,85.68
2019-03-23T04:05:58.395Z,86.05
2019-03-23T04:08:28.821Z,85.98
2019-03-23T04:10:59.375Z,86.46
2019-03-23T04:13:30.288Z,86.80
2019-03-23T04:16:01.202Z,87.30
2019-03-23T04:18:31.693Z,87.47
2019-03-23T04:21:02.114Z,87.61
2019-03-23T04:23:33.015Z,87.58
2019-03-23T04:26:03.526Z,87.74
2019-03-23T04:28:34.236Z,87.64
2019-03-23T04:31:04.842Z,88.12
2019-03-23T04:33:35.305Z,87.97
2019-03-23T04:36:05.940Z,88.06
2019-03-23T04:38:36.442Z,87.35
2019-03-23T04:41:06.931Z,87.74
2019-03-23T04:43:37.350Z,87.62
2019-03-23T04:46:07.843Z,88.25
2019-03-23T04:48:38.295Z,87.93
2019-03-23T04:51:09.179Z,87.05
2019-03-23T04:53:39.675Z,87.24
2019-03-23T04:56:11.067Z,86.89
2019-03-23T04:58:41.558Z,87.10
2019-03-23T05:01:12.067Z,86.54
2019-03-23T05:03:42.495Z,86.30
2019-03-23T05:06:12.969Z,86.11
2019-03-23T05:08:43.555Z,85.70
2019-03-23T05:11:14.428Z,85.65
2019-03-23T05:13:45.547Z,85.42
2019-03-23T05:16:16.271Z,85.81
2019-03-23T05:18:47.013Z,85.49
2019-03-23T05:21:17.550Z,85.61
2019-03-23T05:23:48.000Z,85.58
2019-03-23T05:26:19.171Z,85.32
2019-03-23T05:28:49.951Z,85.37
2019-03-23T05:31:20.456Z,84.73
2019-03-23T05:33:50.892Z,84.87
2019-03-23T05:36:21.417Z,85.66
2019-03-23T05:38:51.909Z,86.06
2019-03-23T05:41:22.811Z,85.45
2019-03-23T05:43:53.209Z,85.64
2019-03-23T05:46:23.621Z,85.49
2019-03-23T05:48:54.545Z,84.51
2019-03-23T05:51:25.526Z,85.02
2019-03-23T05:53:56.284Z,85.07
2019-03-23T05:56:27.075Z,85.01
2019-03-23T05:58:58.396Z,85.04
2019-03-23T06:01:29.265Z,84.88
2019-03-23T06:03:59.738Z,84.50
2019-03-23T06:06:30.240Z,84.12
2019-03-23T06:09:00.605Z,84.50
2019-03-23T06:11:31.166Z,84.56
2019-03-23T06:14:01.586Z,84.33
2019-03-23T06:16:32.349Z,84.62
2019-03-23T06:19:02.754Z,84.79
2019-03-23T06:21:33.256Z,84.44
2019-03-23T06:24:03.770Z,84.29
2019-03-23T06:26:34.273Z,83.90
2019-03-23T06:29:05.098Z,83.81
2019-03-23T06:31:35.618Z,83.45
2019-03-23T06:34:06.165Z,83.33
2019-03-23T06:36:36.722Z,83.19
2019-03-23T06:39:08.776Z,83.38
2019-03-23T06:41:39.220Z,82.96
2019-03-23T06:44:09.647Z,83.07
2019-03-23T06:46:40.115Z,83.24
2019-03-23T06:49:10.731Z,83.61
2019-03-23T06:51:41.601Z,84.13
2019-03-23T06:54:13.777Z,84.26
2019-03-23T06:56:44.988Z,83.83
2019-03-23T06:59:15.512Z,83.27
2019-03-23T07:01:46.328Z,83.59
2019-03-23T07:04:17.110Z,83.78
2019-03-23T07:06:48.012Z,84.08
2019-03-23T07:09:18.459Z,83.48
2019-03-23T07:11:49.040Z,83.47
2019-03-23T07:14:19.519Z,83.30
2019-03-23T07:16:50.439Z,84.06
2019-03-23T07:19:20.877Z,84.31
2019-03-23T07:21:51.634Z,84.20
2019-03-23T07:24:22.614Z,83.91
2019-03-23T07:26:53.030Z,83.62
2019-03-23T07:29:23.652Z,83.74
2019-03-23T07:31:54.131Z,84.19
2019-03-23T07:34:24.652Z,84.90
2019-03-23T07:36:56.940Z,84.30
2019-03-23T07:39:30.381Z,84.67
2019-03-23T07:41:59.751Z,84.38
2019-03-23T07:44:30.271Z,84.92
2019-03-23T07:47:00.872Z,84.80
2019-03-23T07:49:31.293Z,84.84
2019-03-23T07:52:02.093Z,84.72
2019-03-23T07:54:32.738Z,84.61
2019-03-23T07:57:03.209Z,84.95
2019-03-23T07:59:33.768Z,84.84
2019-03-23T08:02:04.379Z,84.50
2019-03-23T08:04:34.810Z,84.40
2019-03-23T08:07:05.787Z,84.43
2019-03-23T08:09:38.094Z,84.35
2019-03-23T08:12:08.973Z,84.07
2019-03-23T08:14:39.395Z,82.89
2019-03-23T08:17:09.846Z,82.08
2019-03-23T08:19:40.262Z,82.11
2019-03-23T08:22:11.301Z,82.16
2019-03-23T08:24:42.838Z,81.67
2019-03-23T08:27:14.529Z,81.46
2019-03-23T08:29:44.925Z,81.44
2019-03-23T08:32:15.437Z,80.94
2019-03-23T08:34:46.263Z,80.38
2019-03-23T08:37:17.683Z,79.88
2019-03-23T08:39:48.878Z,79.24
2019-03-23T08:42:19.545Z,80.05
2019-03-23T08:44:50.066Z,80.06
2019-03-23T08:47:20.692Z,79.10
2019-03-23T08:49:51.257Z,77.97
2019-03-23T08:52:21.675Z,78.40
2019-03-23T08:54:54.455Z,78.65
2019-03-23T08:57:25.017Z,77.95
2019-03-23T08:59:56.669Z,77.55
2019-03-23T09:02:27.094Z,76.97
2019-03-23T09:04:57.836Z,76.83
2019-03-23T09:07:28.805Z,76.21
2019-03-23T09:10:00.639Z,75.86
2019-03-23T09:12:31.373Z,75.44
2019-03-23T09:15:01.782Z,74.55
2019-03-23T09:17:32.522Z,73.72
2019-03-23T09:20:02.941Z,73.86
2019-03-23T09:22:33.441Z,74.33
2019-03-23T09:25:04.358Z,73.61
2019-03-23T09:27:35.668Z,72.56
2019-03-23T09:30:07.576Z,73.32
2019-03-23T09:32:38.530Z,73.50
2019-03-23T09:35:09.445Z,73.43
2019-03-23T09:37:40.364Z,73.50
2019-03-23T09:40:11.571Z,73.47
2019-03-23T09:42:42.256Z,73.02
2019-03-23T09:45:14.365Z,71.91
2019-03-23T09:47:44.915Z,72.26
2019-03-23T09:50:15.755Z,71.74
2019-03-23T09:52:47.086Z,71.94
2019-03-23T09:55:17.671Z,71.63
2019-03-23T09:57:48.101Z,70.86
2019-03-23T10:00:18.581Z,70.77
2019-03-23T10:02:49.111Z,71.10
2019-03-23T10:05:21.081Z,71.01
2019-03-23T10:07:51.528Z,71.34
2019-03-23T10:10:22.355Z,70.79
2019-03-23T10:12:53.551Z,69.94
2019-03-23T10:15:24.238Z,69.78
2019-03-23T10:17:54.704Z,69.12
2019-03-23T10:20:26.145Z,68.80
2019-03-23T10:22:56.680Z,69.80
2019-03-23T10:25:27.203Z,69.91
2019-03-23T10:27:57.749Z,70.09
2019-03-23T10:30:28.265Z,69.69
2019-03-23T10:32:58.807Z,69.68
2019-03-23T10:35:29.216Z,70.07
2019-03-23T10:37:59.818Z,70.08
2019-03-23T10:40:32.680Z,70.10
2019-03-23T10:43:02.538Z,70.67
2019-03-23T10:45:40.027Z,70.85
2019-03-23T10:48:05.238Z,70.53
2019-03-23T10:50:36.113Z,70.73
2019-03-23T10:53:06.684Z,70.48
2019-03-23T10:55:37.164Z,70.27
2019-03-23T10:58:07.618Z,69.85
2019-03-23T11:00:38.122Z,70.04
2019-03-23T11:03:10.000Z,70.62
2019-03-23T11:05:40.573Z,70.96
2019-03-23T11:08:11.074Z,71.24
2019-03-23T11:10:42.197Z,71.02
2019-03-23T11:13:12.594Z,70.83
2019-03-23T11:15:43.206Z,70.81
2019-03-23T11:18:14.084Z,70.54
2019-03-23T11:20:44.590Z,70.61
2019-03-23T11:23:15.085Z,70.85
2019-03-23T11:25:45.937Z,70.92
2019-03-23T11:28:17.293Z,71.73
2019-03-23T11:30:47.803Z,71.69
2019-03-23T11:33:18.595Z,71.55
2019-03-23T11:35:57.511Z,71.65
2019-03-23T11:38:21.624Z,71.46
2019-03-23T11:40:55.377Z,71.58
2019-03-23T11:43:25.781Z,71.87
2019-03-23T11:45:56.275Z,71.93
2019-03-23T11:48:26.785Z,71.82
2019-03-23T11:50:57.647Z,71.62
2019-03-23T11:53:28.578Z,71.76
2019-03-23T11:55:59.573Z,71.05
2019-03-23T11:58:30.162Z,71.11
2019-03-23T12:01:01.747Z,70.86
2019-03-23T12:03:32.723Z,70.94
2019-03-23T12:06:04.823Z,70.83
2019-03-23T12:08:35.896Z,70.35
2019-03-23T12:11:06.665Z,69.99
2019-03-23T12:13:37.410Z,70.44
2019-03-23T12:16:08.185Z,69.88
2019-03-23T12:18:38.818Z,69.62
2019-03-23T12:21:09.553Z,67.43
2019-03-23T12:23:40.242Z,65.25
2019-03-23T12:26:10.871Z,62.76
2019-03-23T12:28:41.348Z,62.52
2019-03-23T12:31:11.754Z,60.94
2019-03-23T12:33:42.215Z,62.09
2019-03-23T12:36:12.747Z,61.52
2019-03-23T12:38:43.370Z,61.47
2019-03-23T12:41:22.787Z,62.15
2019-03-23T12:43:46.806Z,62.76
2019-03-23T12:46:17.191Z,62.32
2019-03-23T12:48:48.085Z,62.89
2019-03-23T12:51:18.631Z,61.94
2019-03-23T12:53:49.131Z,62.04
2019-03-23T12:56:20.207Z,61.75
2019-03-23T12:58:51.371Z,61.68
2019-03-23T13:01:22.577Z,60.90
2019-03-23T13:03:53.175Z,61.36
2019-03-23T13:06:23.833Z,60.05
2019-03-23T13:08:54.470Z,59.74
2019-03-23T13:11:44.321Z,59.11
2019-03-23T13:14:14.976Z,58.89
2019-03-23T13:16:45.575Z,57.71
2019-03-23T13:19:16.116Z,58.41
2019-03-23T13:21:46.671Z,58.32
2019-03-23T13:24:17.213Z,58.95
2019-03-23T13:26:47.786Z,58.80
2019-03-23T13:29:18.571Z,59.46
2019-03-23T13:31:49.188Z,59.25
2019-03-23T13:34:19.870Z,58.53
2019-03-23T13:36:51.441Z,59.32
2019-03-23T13:39:21.986Z,59.43
2019-03-23T13:41:52.539Z,60.23
2019-03-23T13:44:23.121Z,60.68
2019-03-23T13:46:53.629Z,60.05
2019-03-23T13:49:24.202Z,60.52
2019-03-23T13:51:55.067Z,60.00
2019-03-23T13:54:25.966Z,59.90
2019-03-23T13:56:56.694Z,59.99
2019-03-23T13:59:29.084Z,60.39
2019-03-23T14:02:01.144Z,59.78
2019-03-23T14:04:34.086Z,58.97
2019-03-23T14:07:04.586Z,58.73
2019-03-23T14:09:35.491Z,58.07
2019-03-23T14:12:06.749Z,58.80
2019-03-23T14:14:37.575Z,57.86
2019-03-23T14:17:08.121Z,57.11
2019-03-23T14:19:38.662Z,56.73
2019-03-23T14:22:09.221Z,56.94
2019-03-23T14:24:39.605Z,56.78
2019-03-23T14:27:10.252Z,57.69
2019-03-23T14:29:41.015Z,57.81
2019-03-23T14:32:12.617Z,58.78
2019-03-23T14:34:43.970Z,58.27
2019-03-23T14:37:14.535Z,58.03
2019-03-23T14:39:44.949Z,58.00
2019-03-23T14:42:15.990Z,57.50
2019-03-23T14:44:46.838Z,57.52
2019-03-23T14:47:17.719Z,57.10
2019-03-23T14:49:50.092Z,56.61
2019-03-23T14:52:20.544Z,57.36
2019-03-23T14:54:51.355Z,58.41
2019-03-23T14:57:22.475Z,59.29
2019-03-23T14:59:53.078Z,59.69
2019-03-23T15:02:23.850Z,59.70
2019-03-23T15:04:54.613Z,59.83
2019-03-23T15:07:25.687Z,60.84
2019-03-23T15:09:56.359Z,60.85
2019-03-23T15:12:26.734Z,61.41
2019-03-23T15:14:57.154Z,61.97
2019-03-23T15:17:28.094Z,62.35
2019-03-23T15:19:58.583Z,62.83
2019-03-23T15:22:29.074Z,62.72
2019-03-23T15:25:00.213Z,62.92
2019-03-23T15:27:32.146Z,63.26
2019-03-23T15:30:02.883Z,63.01
2019-03-23T15:32:33.658Z,63.43
2019-03-23T15:35:04.415Z,64.04
2019-03-23T15:37:34.960Z,63.99
2019-03-23T15:40:05.942Z,63.99
2019-03-23T15:42:36.872Z,64.29
2019-03-23T15:45:08.641Z,64.37
2019-03-23T15:47:39.486Z,64.69
2019-03-23T15:50:11.482Z,65.39
2019-03-23T15:52:42.070Z,65.18
2019-03-23T15:55:12.611Z,65.53
2019-03-23T15:57:43.241Z,66.43
2019-03-23T16:00:14.470Z,66.37
2019-03-23T16:02:45.866Z,66.61
2019-03-23T16:05:17.829Z,66.86
2019-03-23T16:07:48.667Z,67.35
2019-03-23T16:10:19.182Z,67.87
2019-03-23T16:12:49.648Z,67.87
2019-03-23T16:15:20.254Z,67.80
2019-03-23T16:17:51.030Z,67.97
2019-03-23T16:20:21.837Z,68.11
2019-03-23T16:22:53.027Z,68.34
2019-03-23T16:25:23.691Z,68.62
2019-03-23T16:27:54.161Z,68.98
2019-03-23T16:30:30.900Z,69.02
2019-03-23T16:33:01.509Z,69.23
2019-03-23T16:35:33.492Z,69.48
2019-03-23T16:38:04.113Z,69.73
2019-03-23T16:40:34.673Z,70.06
2019-03-23T16:43:06.320Z,69.94
2019-03-23T16:45:36.979Z,70.39
2019-03-23T16:48:08.098Z,70.33
2019-03-23T16:50:38.654Z,70.76
2019-03-23T16:53:09.359Z,70.99
2019-03-23T16:55:39.844Z,71.34
2019-03-23T16:58:16.047Z,71.54
2019-03-23T17:00:42.997Z,71.72
2019-03-23T17:03:13.590Z,71.96
2019-03-23T17:05:44.552Z,72.31
2019-03-23T17:08:14.960Z,72.48
2019-03-23T17:10:45.483Z,72.73
2019-03-23T17:13:16.175Z,73.09
2019-03-23T17:15:46.713Z,73.25
2019-03-23T17:18:18.360Z,73.33
2019-03-23T17:20:48.870Z,73.58
2019-03-23T17:23:20.031Z,73.72
2019-03-23T17:25:50.540Z,73.63
2019-03-23T17:28:20.951Z,73.94
2019-03-23T17:30:51.484Z,73.95
2019-03-23T17:33:21.906Z,74.05
2019-03-23T17:35:52.530Z,74.33
2019-03-23T17:38:23.325Z,74.47
2019-03-23T17:40:54.153Z,74.55
2019-03-23T17:43:25.710Z,74.44
2019-03-23T17:45:56.262Z,74.37
2019-03-23T17:48:26.704Z,74.04
2019-03-23T17:50:57.241Z,73.97
2019-03-23T17:53:27.645Z,73.79
2019-03-23T17:55:58.754Z,73.52
2019-03-23T17:58:29.205Z,73.49
2019-03-23T18:01:00.564Z,73.63
2019-03-23T18:03:31.746Z,73.71
2019-03-23T18:06:02.450Z,73.53
2019-03-23T18:08:33.206Z,73.47
2019-03-23T18:11:03.954Z,73.41
2019-03-23T18:13:34.445Z,73.46
2019-03-23T18:16:04.968Z,73.49
2019-03-23T18:18:35.753Z,73.72
2019-03-23T18:21:06.284Z,73.77
2019-03-23T18:23:36.786Z,73.79
2019-03-23T18:26:07.454Z,74.05
2019-03-23T18:28:38.030Z,74.04
2019-03-23T18:31:08.488Z,74.13
2019-03-23T18:33:39.000Z,74.12
2019-03-23T18:36:10.780Z,74.01
2019-03-23T18:38:41.265Z,73.98
2019-03-23T18:41:11.783Z,74.16
2019-03-23T18:43:42.235Z,74.19
2019-03-23T18:46:12.717Z,74.52
2019-03-23T18:48:43.511Z,74.75
2019-03-23T18:51:14.246Z,74.78
2019-03-23T18:53:45.178Z,74.70
2019-03-23T18:56:15.615Z,74.41
2019-03-23T18:58:46.154Z,74.53
2019-03-23T19:01:17.495Z,74.65
2019-03-23T19:03:47.934Z,74.72
2019-03-23T19:06:18.460Z,74.80
2019-03-23T19:08:48.975Z,75.03
2019-03-23T19:11:19.583Z,75.18
2019-03-23T19:13:50.098Z,75.39
2019-03-23T19:16:21.917Z,75.29
2019-03-23T19:18:52.722Z,75.02
2019-03-23T19:21:23.187Z,75.04
2019-03-23T19:23:53.610Z,75.06
2019-03-23T19:26:24.039Z,75.00
2019-03-23T19:28:54.836Z,74.89
2019-03-23T19:31:25.585Z,74.91
2019-03-23T19:33:55.992Z,74.94
2019-03-23T19:36:26.723Z,75.14
2019-03-23T19:38:58.848Z,75.20
2019-03-23T19:41:29.666Z,75.34
2019-03-23T19:44:00.483Z,75.54
2019-03-23T19:46:30.938Z,75.51
2019-03-23T19:49:01.710Z,75.49
2019-03-23T19:51:32.381Z,75.57
2019-03-23T19:54:03.168Z,75.69
2019-03-23T19:56:34.826Z,75.76
2019-03-23T19:59:05.314Z,75.81
2019-03-23T20:01:36.299Z,75.87
2019-03-23T20:04:06.890Z,75.72
2019-03-23T20:06:37.250Z,75.80
2019-03-23T20:09:08.832Z,75.91
2019-03-23T20:11:39.895Z,76.04
2019-03-23T20:14:10.393Z,76.07
2019-03-23T20:16:41.006Z,76.06
2019-03-23T20:19:11.619Z,76.05
2019-03-23T20:21:42.024Z,76.15
2019-03-23T20:24:13.731Z,76.24
2019-03-23T20:26:44.223Z,76.34
2019-03-23T20:29:15.069Z,76.49
2019-03-23T20:31:45.720Z,76.69
2019-03-23T20:34:16.097Z,76.80
2019-03-23T20:36:47.290Z,76.91
2019-03-23T20:39:17.893Z,76.96
2019-03-23T20:41:48.352Z,77.01
2019-03-23T20:44:18.822Z,76.98
2019-03-23T20:46:49.745Z,76.98
2019-03-23T20:49:20.460Z,77.12
2019-03-23T20:51:51.564Z,77.09
2019-03-23T20:54:22.188Z,77.09
2019-03-23T20:56:52.791Z,77.12
2019-03-23T20:59:23.330Z,77.12
2019-03-23T21:01:54.379Z,77.24
2019-03-23T21:04:25.101Z,77.49
2019-03-23T21:06:55.537Z,77.49
2019-03-23T21:09:26.408Z,77.59
2019-03-23T21:11:57.259Z,77.69
2019-03-23T21:14:28.023Z,77.77
2019-03-23T21:16:58.527Z,77.77
2019-03-23T21:19:29.118Z,77.84
2019-03-23T21:21:59.558Z,77.86
2019-03-23T21:24:30.298Z,77.88
2019-03-23T21:27:01.123Z,78.03
2019-03-23T21:29:32.633Z,77.99
2019-03-23T21:32:03.129Z,78.03
2019-03-23T21:34:33.665Z,78.11
2019-03-23T21:37:05.288Z,78.21
2019-03-23T21:39:36.431Z,78.37
2019-03-23T21:42:06.944Z,78.42
2019-03-23T21:44:37.750Z,78.49
2019-03-23T21:47:08.533Z,78.58
2019-03-23T21:49:39.061Z,78.77
2019-03-23T21:52:09.587Z,78.81
2019-03-23T21:54:40.014Z,78.93
2019-03-23T21:57:10.659Z,79.04
2019-03-23T21:59:41.389Z,79.09
2019-03-23T22:02:11.978Z,79.25
2019-03-23T22:04:43.543Z,79.25
2019-03-23T22:07:13.926Z,79.41
2019-03-23T22:09:44.354Z,79.29
2019-03-23T22:12:15.166Z,79.33
2019-03-23T22:14:47.125Z,79.36
2019-03-23T22:17:17.650Z,79.46
2019-03-23T22:19:48.836Z,79.50
2019-03-23T22:22:19.363Z,79.60
2019-03-23T22:24:49.783Z,79.62
2019-03-23T22:27:20.225Z,79.72
2019-03-23T22:29:50.662Z,79.83
2019-03-23T22:32:22.249Z,79.78
2019-03-23T22:34:52.743Z,79.70
2019-03-23T22:37:23.098Z,79.96
2019-03-23T22:39:53.587Z,79.91
2019-03-23T22:42:24.076Z,79.77
2019-03-23T22:44:54.499Z,79.71
2019-03-23T22:47:24.888Z,79.74
2019-03-23T22:49:55.638Z,79.79
2019-03-23T22:52:26.120Z,79.84
2019-03-23T22:54:56.904Z,79.94
2019-03-23T22:57:27.426Z,80.05
2019-03-23T22:59:58.183Z,79.96
2019-03-23T23:02:28.772Z,79.94
2019-03-23T23:04:59.249Z,80.02
2019-03-23T23:07:29.757Z,80.02
2019-03-23T23:10:00.593Z,80.03
2019-03-23T23:12:31.491Z,80.04
2019-03-23T23:15:04.816Z,80.22
2019-03-23T23:17:34.369Z,80.23
2019-03-23T23:20:05.456Z,80.25
2019-03-23T23:22:35.948Z,80.35
2019-03-23T23:25:06.884Z,80.45
2019-03-23T23:27:37.401Z,80.56
2019-03-23T23:30:10.109Z,80.43
2019-03-23T23:32:40.622Z,80.51
2019-03-23T23:35:11.321Z,80.54
2019-03-23T23:37:43.831Z,80.79
2019-03-23T23:40:15.611Z,80.82
2019-03-23T23:42:47.492Z,80.92
2019-03-23T23:45:18.053Z,80.90
2019-03-23T23:47:48.908Z,81.00
2019-03-23T23:50:19.562Z,81.00
2019-03-23T23:52:50.115Z,80.97
2019-03-23T23:55:20.606Z,81.10
2019-03-23T23:57:51.171Z,81.29
